Saint Anthony, Canada
Current Conditions -  °F | °C
As of 7:21 PM on Wednesday 28 Jan 2015 (Local Time) from CYAY Reporting Station
Light Snow Light Snow  
Wind Chill:   Ceiling: 2500
Heat Index: 21°   Visibility: 2.2mi
Dew Point: 21°   Wind: 16mph
Humidity: 100%   Direction: 10°N
Pressure: 29.77"   Gusts: 23mph
Location:  51.48°N, 55.81°W
Report Text: CYAY 282221Z AUTO 01014G20KT 2 1/4SM -SN FEW006 OVC025 M06/M06 A2977 RMK SLP083
Loading
Personal Weather Stations






























Interactive Weather Map New forecast layout! Learn more

10-Day Weather Forecast

Advertisements
Track Severe Weather on mobile